Time;durP1;ratioP1;P1;durP2;ratioP2;P2;SDS_P1;SDS_P2;PMS_P1;PMS_P2;Temp;Humidity;BMP_temperature;BMP_pressure;BME280_temperature;BME280_humidity;BME280_pressure;Samples;Min_cycle;Max_cycle;Signal;HPM_P1;HPM_P2
2021/05/27 00:01:09;;;;;;;0.10;0.10;;;8.70;99.90;;;;;;4968806;28;20201;-78
2021/05/27 00:03:34;;;;;;;0.10;0.10;;;8.70;99.90;;;;;;4970514;28;20200;-80
2021/05/27 00:06:00;;;;;;;0.10;0.10;;;8.70;99.90;;;;;;4969746;28;20294;-80
2021/05/27 00:08:25;;;;;;;0.77;0.47;;;8.60;99.90;;;;;;4967878;28;20220;-80
2021/05/27 00:10:51;;;;;;;0.07;0.07;;;8.60;99.90;;;;;;4966847;28;20307;-79
2021/05/27 00:13:17;;;;;;;0.10;0.10;;;8.60;99.90;;;;;;4966630;28;20667;-80
2021/05/27 00:15:42;;;;;;;0.17;0.17;;;8.60;99.90;;;;;;4971133;28;20619;-79
2021/05/27 00:18:08;;;;;;;0.20;0.20;;;8.70;99.90;;;;;;4973843;28;20236;-80
2021/05/27 00:20:34;;;;;;;0.27;0.27;;;8.80;99.90;;;;;;4962970;28;20278;-80
2021/05/27 00:22:59;;;;;;;0.13;0.13;;;8.90;99.90;;;;;;4967707;28;20711;-79
2021/05/27 00:25:25;;;;;;;0.20;0.20;;;8.90;99.90;;;;;;4956037;28;20202;-79
2021/05/27 00:27:52;;;;;;;0.47;0.23;;;9.00;99.90;;;;;;4960992;28;20223;-80
2021/05/27 00:30:18;;;;;;;0.20;0.20;;;9.10;99.90;;;;;;4971556;28;20627;-79
2021/05/27 00:32:44;;;;;;;0.20;0.20;;;9.10;99.90;;;;;;4966967;28;20271;-78
2021/05/27 00:35:11;;;;;;;0.20;0.10;;;9.20;99.90;;;;;;4967944;28;20237;-80
2021/05/27 00:37:37;;;;;;;0.07;0.07;;;9.20;99.90;;;;;;4967939;28;20211;-80
2021/05/27 00:40:05;;;;;;;0.40;0.20;;;9.30;99.90;;;;;;4970137;28;20588;-80
2021/05/27 00:42:30;;;;;;;0.27;0.27;;;9.30;99.90;;;;;;4967208;28;20622;-80
2021/05/27 00:45:02;;;;;;;1.70;0.40;;;9.30;99.90;;;;;;4964105;28;20185;-80
2021/05/27 00:47:28;;;;;;;0.37;0.37;;;9.30;99.90;;;;;;4970201;28;20221;-80
2021/05/27 00:49:53;;;;;;;0.70;0.30;;;9.30;99.90;;;;;;4971999;28;20198;-80
2021/05/27 00:52:19;;;;;;;0.10;0.10;;;9.30;99.90;;;;;;4969577;28;20197;-80
2021/05/27 00:54:46;;;;;;;0.13;0.13;;;9.30;99.90;;;;;;4970604;28;20193;-79
2021/05/27 00:57:22;;;;;;;1.33;0.47;;;9.20;99.90;;;;;;4958468;28;20284;-80
2021/05/27 00:59:48;;;;;;;0.00;0.00;;;9.30;99.90;;;;;;4965328;28;20259;-80
2021/05/27 01:02:13;;;;;;;0.20;0.20;;;9.30;99.90;;;;;;4968025;28;20185;-80
2021/05/27 01:04:39;;;;;;;0.33;0.33;;;9.30;99.90;;;;;;4965928;28;20261;-80
2021/05/27 01:07:05;;;;;;;0.93;0.93;;;9.40;99.90;;;;;;4952941;28;20199;-80
2021/05/27 01:09:30;;;;;;;0.10;0.10;;;9.40;99.90;;;;;;4965156;28;20299;-80
2021/05/27 01:11:56;;;;;;;0.10;0.10;;;9.50;99.90;;;;;;4969723;28;20190;-80
2021/05/27 01:17:07;;;;;;;0.20;0.20;;;9.50;99.90;;;;;;4969385;28;20199;-80
2021/05/27 01:19:33;;;;;;;0.17;0.17;;;9.70;99.90;;;;;;4984557;28;20233;-80
2021/05/27 01:21:58;;;;;;;0.20;0.20;;;9.70;99.90;;;;;;4962159;28;20290;-80
2021/05/27 01:24:24;;;;;;;0.53;0.20;;;9.70;99.90;;;;;;4974472;28;20611;-80
2021/05/27 01:26:50;;;;;;;0.20;0.10;;;9.70;99.90;;;;;;4971321;28;20198;-80
2021/05/27 01:29:15;;;;;;;0.20;0.20;;;9.70;99.90;;;;;;4963163;28;20200;-80
2021/05/27 01:31:41;;;;;;;0.30;0.30;;;9.70;99.90;;;;;;4965835;28;20301;-80
2021/05/27 01:34:09;;;;;;;0.10;0.10;;;9.70;99.90;;;;;;4971611;28;20185;-80
2021/05/27 01:36:35;;;;;;;0.20;0.20;;;9.60;99.90;;;;;;4973556;28;20652;-80
2021/05/27 01:39:01;;;;;;;0.10;0.10;;;9.60;99.90;;;;;;4969998;28;20216;-80
2021/05/27 01:41:26;;;;;;;0.67;0.67;;;9.60;99.90;;;;;;4970755;28;20238;-80
2021/05/27 01:43:52;;;;;;;0.47;0.47;;;9.60;99.90;;;;;;4971776;28;20214;-80
2021/05/27 01:46:17;;;;;;;0.27;0.27;;;9.60;99.90;;;;;;4974870;28;20195;-79
2021/05/27 01:48:43;;;;;;;0.10;0.10;;;9.60;99.90;;;;;;4972093;28;20218;-80
2021/05/27 01:51:09;;;;;;;0.10;0.10;;;9.60;99.90;;;;;;4967724;28;20215;-80
2021/05/27 01:53:34;;;;;;;0.17;0.13;;;9.60;99.90;;;;;;4966036;28;20197;-80
2021/05/27 01:56:00;;;;;;;0.93;0.30;;;9.60;99.90;;;;;;4980977;28;20191;-79
2021/05/27 01:58:25;;;;;;;0.20;0.20;;;9.70;99.90;;;;;;4967033;28;20703;-79
2021/05/27 02:00:51;;;;;;;0.13;0.13;;;9.70;99.90;;;;;;4976905;28;20593;-79
2021/05/27 02:03:16;;;;;;;0.20;0.20;;;9.70;99.90;;;;;;4975573;28;20628;-79
2021/05/27 02:05:43;;;;;;;0.30;0.30;;;9.70;99.90;;;;;;4977188;28;20194;-78
2021/05/27 02:08:10;;;;;;;0.20;0.20;;;9.70;99.90;;;;;;4971154;28;20644;-79
2021/05/27 02:10:35;;;;;;;0.30;0.10;;;9.70;99.90;;;;;;4977492;28;20210;-79
2021/05/27 02:13:01;;;;;;;0.20;0.20;;;9.80;99.90;;;;;;4980200;28;20542;-79
2021/05/27 02:15:27;;;;;;;0.10;0.10;;;9.70;99.90;;;;;;4978032;28;20195;-79
2021/05/27 02:17:52;;;;;;;0.10;0.10;;;9.70;99.90;;;;;;4970304;28;20634;-80
2021/05/27 02:20:18;;;;;;;0.10;0.10;;;9.70;99.90;;;;;;4971059;28;20190;-80
2021/05/27 02:22:44;;;;;;;0.27;0.27;;;9.70;99.90;;;;;;4964849;28;20266;-79
2021/05/27 02:25:10;;;;;;;0.50;0.27;;;9.70;99.90;;;;;;4975894;28;20190;-80
2021/05/27 02:27:36;;;;;;;0.10;0.10;;;9.70;99.90;;;;;;4976349;28;20275;-80
2021/05/27 02:30:03;;;;;;;0.63;0.30;;;9.60;99.90;;;;;;4986645;28;20621;-80
2021/05/27 02:32:29;;;;;;;0.10;0.10;;;9.60;99.90;;;;;;4970167;28;20226;-80
2021/05/27 02:34:54;;;;;;;0.27;0.27;;;9.60;99.90;;;;;;4968894;28;20185;-80
2021/05/27 02:37:20;;;;;;;0.10;0.10;;;9.60;99.90;;;;;;4964158;28;20200;-79
2021/05/27 02:39:46;;;;;;;0.20;0.20;;;9.60;99.90;;;;;;4980843;28;20204;-80
2021/05/27 02:42:11;;;;;;;0.10;0.10;;;9.60;99.90;;;;;;4962689;28;20185;-80
2021/05/27 02:44:37;;;;;;;0.70;0.70;;;9.60;99.90;;;;;;4969616;28;20195;-80
2021/05/27 02:47:02;;;;;;;0.13;0.13;;;9.50;99.90;;;;;;4976312;28;20182;-80
2021/05/27 02:49:28;;;;;;;0.20;0.20;;;9.50;99.90;;;;;;4974590;28;20677;-79
2021/05/27 02:51:54;;;;;;;0.20;0.10;;;9.50;99.90;;;;;;4964071;28;20563;-80
2021/05/27 02:54:19;;;;;;;0.50;0.50;;;9.50;99.90;;;;;;4969872;28;20188;-80
2021/05/27 02:56:45;;;;;;;0.93;0.53;;;9.40;99.90;;;;;;4970121;28;20198;-80
2021/05/27 02:59:11;;;;;;;0.20;0.20;;;9.40;99.90;;;;;;4968508;28;20342;-80
2021/05/27 03:01:37;;;;;;;0.10;0.10;;;9.40;99.90;;;;;;4969827;28;20190;-80
2021/05/27 03:04:02;;;;;;;0.60;0.50;;;9.50;99.90;;;;;;4969644;28;20191;-79
2021/05/27 03:06:28;;;;;;;0.10;0.10;;;9.50;99.90;;;;;;4967671;28;20185;-78
2021/05/27 03:08:53;;;;;;;0.40;0.40;;;9.50;99.90;;;;;;4963412;28;20215;-80
2021/05/27 03:11:19;;;;;;;0.10;0.10;;;9.50;99.90;;;;;;4982064;28;20651;-80
2021/05/27 03:13:45;;;;;;;0.10;0.10;;;9.60;99.90;;;;;;4960984;28;20184;-79
2021/05/27 03:16:10;;;;;;;0.77;0.60;;;9.60;99.90;;;;;;4974266;28;20654;-79
2021/05/27 03:18:36;;;;;;;0.10;0.10;;;9.60;99.90;;;;;;4974995;28;20781;-80
2021/05/27 03:21:02;;;;;;;0.10;0.10;;;9.60;99.90;;;;;;4960617;28;20238;-79
2021/05/27 03:23:28;;;;;;;0.20;0.13;;;9.60;99.90;;;;;;4974335;28;20180;-80
2021/05/27 03:25:54;;;;;;;0.10;0.10;;;9.60;99.90;;;;;;4973336;28;20193;-80
2021/05/27 03:28:19;;;;;;;0.10;0.10;;;9.50;99.90;;;;;;4972413;28;20213;-80
2021/05/27 03:30:45;;;;;;;1.40;1.27;;;9.50;99.90;;;;;;4968137;28;20226;-79
2021/05/27 03:33:11;;;;;;;0.27;0.27;;;9.60;99.90;;;;;;4959596;28;20564;-79
2021/05/27 03:35:37;;;;;;;0.20;0.20;;;9.60;99.90;;;;;;4960745;28;20569;-80
2021/05/27 03:38:04;;;;;;;0.10;0.10;;;9.50;99.90;;;;;;4956373;28;20280;-79
2021/05/27 03:40:29;;;;;;;0.23;0.23;;;9.50;99.90;;;;;;4962970;28;20190;-79
2021/05/27 03:42:56;;;;;;;0.20;0.20;;;9.50;99.90;;;;;;4971656;28;20199;-79
2021/05/27 03:45:24;;;;;;;0.10;0.10;;;9.50;99.90;;;;;;4970105;28;20204;-80
2021/05/27 03:47:50;;;;;;;0.10;0.10;;;9.50;99.90;;;;;;4956153;28;20274;-80
2021/05/27 03:50:18;;;;;;;0.10;0.10;;;9.50;99.90;;;;;;4960835;28;20212;-80
2021/05/27 03:52:44;;;;;;;0.20;0.20;;;9.50;99.90;;;;;;4967217;28;20187;-79
2021/05/27 03:55:13;;;;;;;0.00;0.00;;;9.50;99.90;;;;;;4958698;28;20308;-79
2021/05/27 03:57:39;;;;;;;0.40;0.30;;;9.60;99.90;;;;;;4971490;28;20201;-80
2021/05/27 04:02:56;;;;;;;0.20;0.20;;;9.60;99.90;;;;;;4969658;28;20692;-80
2021/05/27 04:08:06;;;;;;;0.00;0.00;;;9.60;99.90;;;;;;4970265;28;20266;-80
2021/05/27 04:10:32;;;;;;;0.30;0.30;;;9.70;99.90;;;;;;4972804;28;20609;-79
2021/05/27 04:12:58;;;;;;;0.43;0.20;;;9.70;99.90;;;;;;4968605;28;20191;-79
2021/05/27 04:15:27;;;;;;;0.13;0.13;;;9.70;99.90;;;;;;4970030;28;20280;-78
2021/05/27 04:17:59;;;;;;;0.20;0.20;;;9.80;99.90;;;;;;4972432;28;20215;-80
2021/05/27 04:20:27;;;;;;;0.20;0.20;;;9.80;99.90;;;;;;4972391;28;20209;-80
2021/05/27 04:22:53;;;;;;;0.13;0.13;;;9.80;99.90;;;;;;4958049;28;20278;-80
2021/05/27 04:25:21;;;;;;;0.20;0.20;;;9.80;99.90;;;;;;4969639;28;20228;-79
2021/05/27 04:27:47;;;;;;;0.17;0.17;;;9.80;99.90;;;;;;4958680;28;20278;-80
2021/05/27 04:30:15;;;;;;;0.10;0.10;;;9.90;99.90;;;;;;4965680;28;20294;-80
2021/05/27 04:35:43;;;;;;;0.30;0.30;;;10.00;99.90;;;;;;4951034;28;20186;-81
2021/05/27 04:38:11;;;;;;;0.10;0.10;;;10.00;99.90;;;;;;4956164;28;20236;-81
2021/05/27 04:40:39;;;;;;;0.20;0.20;;;10.00;99.90;;;;;;4966997;28;20188;-81
2021/05/27 04:43:05;;;;;;;0.93;0.70;;;10.10;99.90;;;;;;4962188;28;20195;-80
2021/05/27 04:45:32;;;;;;;0.20;0.20;;;10.00;99.90;;;;;;4971174;28;20193;-81
2021/05/27 04:47:58;;;;;;;0.17;0.17;;;9.90;99.90;;;;;;4970288;28;20242;-81
2021/05/27 04:50:25;;;;;;;0.50;0.37;;;10.00;99.90;;;;;;4986225;28;20231;-81
2021/05/27 04:52:51;;;;;;;0.30;0.30;;;10.10;99.90;;;;;;4967622;28;20219;-80
2021/05/27 04:55:19;;;;;;;1.10;0.10;;;10.20;99.90;;;;;;4970177;28;20311;-80
2021/05/27 04:57:44;;;;;;;0.10;0.10;;;10.10;99.90;;;;;;4960060;28;20248;-79
2021/05/27 05:00:14;;;;;;;0.50;0.50;;;10.10;99.90;;;;;;4969601;28;20274;-82
2021/05/27 05:02:40;;;;;;;0.10;0.10;;;10.10;99.90;;;;;;4965683;28;20215;-81
2021/05/27 05:05:08;;;;;;;0.30;0.30;;;10.20;99.90;;;;;;4970906;28;20226;-81
2021/05/27 05:07:34;;;;;;;0.40;0.40;;;10.30;99.90;;;;;;4967751;28;20192;-81
2021/05/27 05:10:00;;;;;;;0.57;0.57;;;10.30;99.90;;;;;;4965788;28;20577;-80
2021/05/27 05:12:26;;;;;;;0.17;0.17;;;10.40;99.90;;;;;;4965909;28;20194;-81
2021/05/27 05:14:51;;;;;;;0.73;0.47;;;10.30;99.90;;;;;;4965098;28;20644;-79
2021/05/27 05:17:17;;;;;;;0.10;0.10;;;10.30;99.90;;;;;;4974131;28;20327;-83
2021/05/27 05:19:42;;;;;;;0.20;0.20;;;10.20;99.90;;;;;;4971352;28;20203;-83
2021/05/27 05:22:08;;;;;;;0.40;0.40;;;10.20;99.90;;;;;;4968545;28;20190;-83
2021/05/27 05:24:33;;;;;;;1.47;0.67;;;10.20;99.90;;;;;;4968136;28;20644;-82
2021/05/27 05:27:01;;;;;;;2.03;0.20;;;10.20;99.90;;;;;;4967142;28;20187;-80
2021/05/27 05:29:26;;;;;;;0.57;0.17;;;10.30;99.90;;;;;;4972182;28;20196;-79
2021/05/27 05:31:52;;;;;;;0.73;0.27;;;10.40;99.90;;;;;;4973373;28;20763;-79
2021/05/27 05:34:17;;;;;;;2.23;0.50;;;10.50;99.90;;;;;;4972381;28;20218;-79
2021/05/27 05:36:43;;;;;;;0.30;0.20;;;10.50;99.90;;;;;;4967385;28;20202;-80
2021/05/27 05:39:09;;;;;;;0.60;0.50;;;10.60;99.90;;;;;;4971732;28;20278;-79
2021/05/27 05:41:34;;;;;;;2.27;0.93;;;10.50;99.90;;;;;;4960185;28;20255;-80
2021/05/27 05:44:00;;;;;;;0.70;0.70;;;10.60;99.90;;;;;;4961037;28;20661;-78
2021/05/27 05:46:26;;;;;;;0.10;0.10;;;10.50;99.90;;;;;;4968854;28;20213;-83
2021/05/27 05:48:52;;;;;;;0.30;0.20;;;10.60;99.90;;;;;;4969051;28;20214;-83
2021/05/27 05:51:17;;;;;;;0.30;0.30;;;10.70;99.90;;;;;;4969126;28;20763;-83
2021/05/27 05:53:43;;;;;;;0.10;0.10;;;10.90;99.90;;;;;;4962641;28;20187;-83
2021/05/27 05:56:09;;;;;;;0.97;0.27;;;11.00;99.90;;;;;;4971502;28;20763;-82
2021/05/27 05:58:34;;;;;;;0.60;0.20;;;11.10;99.90;;;;;;4974135;28;20230;-80
2021/05/27 06:01:00;;;;;;;0.90;0.83;;;11.10;99.90;;;;;;4971673;28;20218;-81
2021/05/27 06:03:25;;;;;;;0.27;0.27;;;11.20;99.90;;;;;;4972341;28;20279;-80
2021/05/27 06:05:51;;;;;;;0.70;0.23;;;11.20;99.90;;;;;;4971824;28;20189;-81
2021/05/27 06:08:17;;;;;;;0.37;0.30;;;11.30;99.90;;;;;;4962667;28;20695;-80
2021/05/27 06:10:43;;;;;;;0.67;0.50;;;11.30;99.90;;;;;;4968359;28;20596;-77
2021/05/27 06:13:08;;;;;;;0.20;0.20;;;11.30;99.90;;;;;;4972127;28;20184;-80
2021/05/27 06:15:34;;;;;;;1.30;0.83;;;11.30;99.90;;;;;;4972790;28;20185;-80
2021/05/27 06:18:00;;;;;;;0.40;0.30;;;11.30;99.90;;;;;;4973431;28;20259;-83
2021/05/27 06:20:28;;;;;;;0.27;0.27;;;11.30;99.90;;;;;;4972894;28;20200;-83
2021/05/27 06:22:54;;;;;;;0.30;0.30;;;11.40;99.90;;;;;;4969935;28;20197;-83
2021/05/27 06:25:21;;;;;;;0.40;0.40;;;11.40;99.90;;;;;;4970904;28;20185;-83
2021/05/27 06:27:47;;;;;;;0.30;0.30;;;11.40;99.90;;;;;;4971982;28;20183;-82
2021/05/27 06:30:14;;;;;;;0.40;0.30;;;11.40;99.90;;;;;;4971482;28;20252;-81
2021/05/27 06:32:40;;;;;;;0.20;0.20;;;11.60;99.90;;;;;;4972632;28;20284;-83
2021/05/27 06:35:08;;;;;;;0.20;0.10;;;11.50;99.90;;;;;;4989463;28;20283;-83
2021/05/27 06:37:37;;;;;;;0.20;0.20;;;11.50;99.90;;;;;;4973248;28;20526;-83
2021/05/27 06:40:05;;;;;;;0.20;0.20;;;11.50;99.90;;;;;;4974880;28;20278;-83
2021/05/27 06:42:31;;;;;;;0.30;0.30;;;11.40;99.90;;;;;;4974851;28;20182;-83
2021/05/27 06:44:56;;;;;;;0.30;0.30;;;11.50;99.90;;;;;;4973634;28;20243;-84
2021/05/27 06:47:22;;;;;;;0.20;0.20;;;11.40;99.90;;;;;;4971867;28;20214;-86
2021/05/27 06:49:47;;;;;;;0.30;0.30;;;11.50;99.90;;;;;;4975405;28;20205;-85
2021/05/27 06:52:13;;;;;;;0.43;0.43;;;11.70;99.90;;;;;;4975112;28;20188;-81
2021/05/27 06:54:39;;;;;;;0.40;0.40;;;11.90;99.90;;;;;;4976954;28;20213;-82
2021/05/27 06:57:05;;;;;;;0.30;0.30;;;12.10;99.90;;;;;;4976016;28;20688;-81
2021/05/27 06:59:31;;;;;;;0.23;0.23;;;12.30;99.90;;;;;;4992451;28;20219;-82
2021/05/27 07:01:56;;;;;;;0.40;0.30;;;12.50;99.90;;;;;;4975605;28;20192;-82
2021/05/27 07:04:22;;;;;;;0.43;0.20;;;12.60;99.90;;;;;;4975292;28;20198;-83
2021/05/27 07:06:48;;;;;;;1.30;0.20;;;12.80;99.90;;;;;;4975599;28;20202;-83
2021/05/27 07:09:14;;;;;;;0.17;0.17;;;12.70;99.90;;;;;;4973169;28;20279;-82
2021/05/27 07:11:43;;;;;;;2.10;0.57;;;12.60;99.90;;;;;;4977193;28;20227;-82
2021/05/27 07:14:09;;;;;;;0.23;0.23;;;12.60;99.90;;;;;;4972430;28;20343;-82
2021/05/27 07:16:36;;;;;;;0.20;0.20;;;12.70;99.90;;;;;;4974199;28;20720;-83
2021/05/27 07:19:02;;;;;;;0.10;0.10;;;12.70;99.90;;;;;;4973066;28;20283;-82
2021/05/27 07:21:28;;;;;;;0.30;0.30;;;12.70;99.90;;;;;;4974378;28;20240;-82
2021/05/27 07:23:53;;;;;;;0.43;0.40;;;12.80;99.90;;;;;;4962281;28;20195;-83
2021/05/27 07:26:21;;;;;;;0.47;0.40;;;12.80;99.90;;;;;;4990215;28;20187;-83
2021/05/27 07:28:47;;;;;;;0.30;0.30;;;13.00;99.90;;;;;;4974671;28;20212;-83
2021/05/27 07:31:13;;;;;;;0.30;0.30;;;13.20;99.90;;;;;;4970091;28;20210;-83
2021/05/27 07:33:39;;;;;;;0.43;0.30;;;13.30;99.90;;;;;;4971987;28;20320;-83
2021/05/27 07:36:06;;;;;;;0.10;0.10;;;13.40;99.90;;;;;;4979198;28;20693;-83
2021/05/27 07:38:32;;;;;;;1.10;0.40;;;13.60;99.90;;;;;;4974813;28;20237;-82
2021/05/27 07:40:59;;;;;;;0.33;0.33;;;13.90;99.90;;;;;;4970388;28;20202;-83
2021/05/27 07:43:25;;;;;;;1.10;0.97;;;14.10;99.90;;;;;;4971730;28;20195;-85
2021/05/27 07:45:50;;;;;;;0.23;0.23;;;14.40;99.90;;;;;;4988753;28;20203;-85
2021/05/27 07:48:16;;;;;;;0.20;0.20;;;14.60;99.90;;;;;;4972910;28;20247;-81
2021/05/27 07:50:42;;;;;;;1.17;1.17;;;15.00;99.90;;;;;;4974443;28;20216;-82
2021/05/27 07:53:09;;;;;;;0.50;0.47;;;15.10;99.90;;;;;;4974002;28;20189;-83
2021/05/27 07:55:36;;;;;;;0.20;0.20;;;15.20;99.90;;;;;;4973835;28;20232;-82
2021/05/27 07:58:02;;;;;;;0.40;0.40;;;15.10;99.90;;;;;;4989228;28;20224;-83
2021/05/27 08:00:28;;;;;;;0.40;0.40;;;14.90;99.90;;;;;;4975325;28;20208;-83
2021/05/27 08:02:53;;;;;;;0.30;0.30;;;14.80;99.90;;;;;;4973722;28;20223;-82
2021/05/27 08:05:20;;;;;;;0.20;0.20;;;14.80;99.90;;;;;;4970773;28;20195;-83
2021/05/27 08:07:46;;;;;;;0.20;0.20;;;14.70;99.90;;;;;;4998179;28;20192;-83
2021/05/27 08:10:13;;;;;;;0.27;0.27;;;14.70;99.90;;;;;;4975111;28;20680;-83
2021/05/27 08:12:39;;;;;;;0.40;0.40;;;14.60;99.90;;;;;;4974491;28;20233;-83
2021/05/27 08:15:06;;;;;;;0.10;0.10;;;14.70;99.90;;;;;;4973771;28;20177;-81
2021/05/27 08:17:32;;;;;;;0.33;0.23;;;14.70;99.90;;;;;;4973260;28;20188;-85
2021/05/27 08:19:57;;;;;;;0.73;0.37;;;14.70;99.90;;;;;;4970630;28;20196;-83
2021/05/27 08:22:23;;;;;;;0.20;0.20;;;14.60;99.90;;;;;;4982771;28;21478;-82
2021/05/27 08:24:48;;;;;;;0.20;0.20;;;14.50;99.90;;;;;;4974976;28;20206;-82
2021/05/27 08:27:14;;;;;;;0.47;0.40;;;14.40;99.90;;;;;;4975647;28;20219;-84
2021/05/27 08:29:40;;;;;;;0.77;0.53;;;14.50;99.90;;;;;;4973848;28;20211;-83
2021/05/27 08:32:06;;;;;;;0.47;0.40;;;14.40;99.90;;;;;;4992655;28;20219;-83
2021/05/27 08:34:32;;;;;;;0.27;0.27;;;14.50;99.90;;;;;;4971953;28;20664;-85
2021/05/27 08:36:57;;;;;;;0.37;0.33;;;14.60;99.90;;;;;;4981157;28;20195;-81
2021/05/27 08:39:23;;;;;;;0.30;0.30;;;15.00;99.90;;;;;;4970203;28;20243;-81
2021/05/27 08:41:49;;;;;;;0.40;0.40;;;15.20;99.90;;;;;;4971762;28;20184;-82
2021/05/27 08:44:14;;;;;;;0.23;0.23;;;15.30;99.90;;;;;;4966246;28;20188;-83
2021/05/27 08:46:41;;;;;;;0.40;0.40;;;15.40;99.90;;;;;;4974854;28;20561;-81
2021/05/27 08:49:07;;;;;;;0.20;0.20;;;15.20;99.90;;;;;;4962778;28;20200;-81
2021/05/27 08:51:35;;;;;;;0.20;0.20;;;15.10;99.90;;;;;;4972939;28;20227;-84
2021/05/27 08:54:02;;;;;;;0.40;0.40;;;14.80;99.90;;;;;;4974783;28;20216;-83
2021/05/27 08:56:28;;;;;;;2.07;0.57;;;14.80;99.90;;;;;;4966728;28;20248;-84
2021/05/27 08:58:54;;;;;;;0.17;0.17;;;14.60;99.90;;;;;;4973341;28;20711;-83
2021/05/27 09:01:26;;;;;;;0.53;0.37;;;14.80;99.90;;;;;;4960155;28;20184;-82
2021/05/27 09:03:54;;;;;;;0.30;0.30;;;14.60;99.90;;;;;;4964536;28;20701;-82
2021/05/27 09:06:19;;;;;;;0.33;0.33;;;14.60;99.90;;;;;;4973514;28;20214;-82
2021/05/27 09:08:45;;;;;;;0.20;0.20;;;14.80;99.90;;;;;;4973944;28;20204;-83
2021/05/27 09:11:20;;;;;;;0.20;0.20;;;14.70;99.90;;;;;;4988499;28;20266;-84
2021/05/27 09:13:53;;;;;;;0.40;0.40;;;14.70;99.90;;;;;;4974774;28;20177;-83
2021/05/27 09:16:19;;;;;;;0.30;0.30;;;14.70;99.90;;;;;;4987573;28;20200;-83
2021/05/27 09:18:45;;;;;;;0.40;0.40;;;14.70;99.90;;;;;;4973412;28;20715;-84
2021/05/27 09:21:13;;;;;;;0.30;0.30;;;14.80;99.90;;;;;;4969087;28;20193;-83
2021/05/27 09:23:54;;;;;;;0.33;0.33;;;14.80;99.90;;;;;;4987846;28;20214;-84
2021/05/27 09:26:20;;;;;;;0.40;0.40;;;15.10;99.90;;;;;;4963068;28;20183;-83
2021/05/27 09:28:47;;;;;;;0.20;0.20;;;15.20;99.90;;;;;;4991754;28;20287;-83
2021/05/27 09:31:16;;;;;;;0.27;0.27;;;15.30;99.90;;;;;;4976337;28;20538;-85
2021/05/27 09:33:59;;;;;;;0.30;0.30;;;15.50;99.90;;;;;;4970321;28;20180;-82
2021/05/27 09:36:25;;;;;;;0.40;0.40;;;15.70;99.90;;;;;;4992867;28;20275;-84
2021/05/27 09:38:56;;;;;;;0.30;0.30;;;15.90;99.90;;;;;;4991835;28;20287;-83
2021/05/27 09:41:24;;;;;;;0.40;0.40;;;16.00;99.90;;;;;;4992406;28;20752;-84
2021/05/27 09:43:52;;;;;;;0.87;0.87;;;16.30;99.90;;;;;;4966913;28;20191;-84
2021/05/27 09:46:18;;;;;;;0.10;0.10;;;16.30;99.90;;;;;;4995053;28;20206;-84
2021/05/27 09:48:45;;;;;;;0.30;0.30;;;16.50;99.90;;;;;;4973803;28;20217;-83
2021/05/27 09:51:24;;;;;;;0.23;0.23;;;16.60;99.90;;;;;;4967330;28;20218;-83
2021/05/27 09:53:55;;;;;;;2.03;1.07;;;16.70;99.90;;;;;;4980367;28;20197;-83
2021/05/27 09:56:35;;;;;;;0.10;0.10;;;16.50;99.90;;;;;;4975469;28;20185;-86
2021/05/27 09:59:01;;;;;;;0.27;0.27;;;16.40;99.90;;;;;;4974866;28;20275;-86
2021/05/27 10:01:27;;;;;;;0.20;0.20;;;16.80;99.90;;;;;;4976313;28;20188;-86
2021/05/27 10:03:52;;;;;;;1.60;0.30;;;16.80;99.90;;;;;;4980571;28;20192;-86
2021/05/27 10:06:18;;;;;;;0.40;0.40;;;16.60;99.90;;;;;;4978354;28;20651;-87
2021/05/27 10:08:51;;;;;;;0.10;0.10;;;16.70;99.90;;;;;;4976312;28;20297;-86
2021/05/27 10:11:18;;;;;;;0.27;0.27;;;16.90;99.90;;;;;;4974740;28;20210;-85
2021/05/27 10:13:44;;;;;;;0.33;0.33;;;17.00;99.90;;;;;;4974701;28;20183;-86
2021/05/27 10:16:14;;;;;;;0.17;0.17;;;17.00;99.90;;;;;;4974426;28;20207;-86
2021/05/27 10:18:41;;;;;;;0.30;0.30;;;16.70;99.90;;;;;;4991059;28;20301;-86
2021/05/27 10:21:07;;;;;;;0.40;0.40;;;16.70;99.90;;;;;;4975599;28;20216;-86
2021/05/27 10:23:32;;;;;;;0.27;0.23;;;16.70;99.90;;;;;;4974873;28;20187;-86
2021/05/27 10:25:58;;;;;;;0.43;0.43;;;16.70;99.90;;;;;;4975810;28;20227;-86
2021/05/27 10:28:25;;;;;;;0.10;0.10;;;16.80;99.90;;;;;;4975615;28;20290;-86
2021/05/27 10:30:50;;;;;;;0.20;0.20;;;16.60;99.90;;;;;;4974016;28;20928;-87
2021/05/27 10:33:20;;;;;;;0.30;0.27;;;16.80;99.90;;;;;;4988254;28;20269;-86
2021/05/27 10:35:51;;;;;;;0.17;0.17;;;16.90;99.90;;;;;;4986343;28;20274;-86
2021/05/27 10:38:38;;;;;;;0.10;0.10;;;16.80;99.90;;;;;;4981753;28;20205;-87
2021/05/27 10:41:19;;;;;;;0.43;0.40;;;17.00;99.90;;;;;;4974706;28;20191;-86
2021/05/27 10:44:09;;;;;;;0.37;0.33;;;16.70;99.90;;;;;;4990726;28;20185;-86
2021/05/27 10:46:57;;;;;;;0.30;0.30;;;16.70;99.90;;;;;;4975585;28;20201;-86
2021/05/27 10:49:45;;;;;;;0.13;0.13;;;16.50;99.90;;;;;;4977283;28;20205;-86
2021/05/27 10:52:35;;;;;;;0.20;0.20;;;16.30;99.90;;;;;;4969730;28;20193;-85
2021/05/27 10:55:05;;;;;;;0.10;0.10;;;16.30;99.90;;;;;;4974568;28;20231;-86
2021/05/27 10:57:40;;;;;;;0.10;0.10;;;16.20;99.90;;;;;;4967816;28;20199;-86
2021/05/27 11:00:15;;;;;;;0.47;0.47;;;16.30;99.90;;;;;;4974624;28;20181;-89
2021/05/27 11:03:36;;;;;;;0.20;0.20;;;16.10;99.90;;;;;;4973460;28;20187;-86
2021/05/27 11:06:30;;;;;;;1.80;0.20;;;15.80;99.90;;;;;;4974241;28;20197;-87
2021/05/27 11:09:15;;;;;;;0.37;0.37;;;15.60;99.90;;;;;;4975230;28;20672;-85
2021/05/27 11:11:43;;;;;;;0.10;0.10;;;15.50;99.90;;;;;;4968267;28;20627;-86
2021/05/27 11:14:19;;;;;;;0.20;0.20;;;15.50;99.90;;;;;;4973351;28;20721;-86
2021/05/27 11:17:21;;;;;;;0.20;0.20;;;15.40;99.90;;;;;;4966758;28;20301;-86
2021/05/27 11:20:14;;;;;;;0.20;0.20;;;15.40;99.90;;;;;;4981647;28;20201;-85
2021/05/27 11:23:08;;;;;;;0.23;0.23;;;15.40;99.90;;;;;;4983436;28;20193;-85
2021/05/27 11:29:11;;;;;;;0.17;0.17;;;15.30;99.90;;;;;;4973120;28;20208;-86
2021/05/27 11:32:05;;;;;;;0.30;0.30;;;15.30;99.90;;;;;;4976450;28;20285;-86
2021/05/27 11:38:33;;;;;;;0.10;0.10;;;15.40;99.90;;;;;;4974312;28;20215;-85
2021/05/27 11:44:27;;;;;;;0.40;0.30;;;15.60;99.90;;;;;;4967787;28;20264;-88
2021/05/27 11:46:54;;;;;;;0.23;0.23;;;15.60;99.90;;;;;;4983329;28;20194;-86
2021/05/27 11:49:19;;;;;;;0.70;0.40;;;15.70;99.90;;;;;;4986456;28;20213;-86
2021/05/27 11:51:45;;;;;;;0.30;0.30;;;15.70;99.90;;;;;;4975643;28;20220;-85
2021/05/27 11:54:14;;;;;;;0.40;0.40;;;15.70;99.90;;;;;;4980856;28;20198;-85
2021/05/27 11:56:47;;;;;;;0.20;0.20;;;15.70;99.90;;;;;;4968998;28;20841;-85
2021/05/27 11:59:26;;;;;;;0.53;0.20;;;15.90;99.90;;;;;;4962225;28;20225;-85
2021/05/27 12:02:03;;;;;;;0.40;0.33;;;15.70;99.90;;;;;;4972418;28;20368;-85
2021/05/27 12:04:30;;;;;;;0.20;0.20;;;15.70;99.90;;;;;;4978661;28;20233;-83
2021/05/27 12:07:03;;;;;;;0.10;0.10;;;15.80;99.90;;;;;;4974424;28;20222;-82
2021/05/27 12:09:37;;;;;;;0.37;0.37;;;15.80;99.90;;;;;;4970735;28;20206;-83
2021/05/27 12:12:15;;;;;;;0.37;0.23;;;15.90;99.90;;;;;;4977501;28;20224;-83
2021/05/27 12:14:58;;;;;;;0.20;0.20;;;15.90;99.90;;;;;;4975065;28;20563;-82
2021/05/27 12:17:38;;;;;;;1.10;0.40;;;15.90;99.90;;;;;;4971751;28;20194;-83
2021/05/27 12:20:15;;;;;;;0.30;0.30;;;15.80;99.90;;;;;;4971530;28;20188;-82
2021/05/27 12:22:52;;;;;;;0.70;0.27;;;15.70;99.90;;;;;;4971900;28;20180;-82
2021/05/27 12:25:19;;;;;;;0.20;0.20;;;15.50;99.90;;;;;;4972740;28;20175;-83
2021/05/27 12:27:47;;;;;;;0.10;0.10;;;15.50;99.90;;;;;;4972090;28;20190;-82
2021/05/27 12:30:19;;;;;;;0.40;0.40;;;15.50;99.90;;;;;;4974733;28;20207;-82
2021/05/27 12:32:46;;;;;;;0.67;0.33;;;15.40;99.90;;;;;;4961896;28;20194;-83
2021/05/27 12:35:25;;;;;;;0.50;0.23;;;15.40;99.90;;;;;;4983768;28;20543;-83
2021/05/27 12:37:54;;;;;;;0.27;0.23;;;15.50;99.90;;;;;;4974266;28;20190;-82
2021/05/27 12:40:35;;;;;;;0.20;0.20;;;15.60;99.90;;;;;;4973387;28;20275;-83
2021/05/27 12:43:03;;;;;;;0.30;0.30;;;15.50;99.90;;;;;;4988382;28;20205;-82
2021/05/27 12:45:31;;;;;;;0.13;0.13;;;15.30;99.90;;;;;;4974880;28;20194;-82
2021/05/27 12:48:07;;;;;;;0.20;0.20;;;15.20;99.90;;;;;;4966653;28;20209;-83
2021/05/27 12:50:34;;;;;;;0.20;0.20;;;14.90;99.90;;;;;;4956626;28;20208;-85
2021/05/27 12:53:02;;;;;;;0.20;0.20;;;14.60;99.90;;;;;;4964066;28;20180;-86
2021/05/27 12:55:30;;;;;;;0.20;0.20;;;14.70;99.90;;;;;;4968152;28;20219;-83
2021/05/27 12:58:00;;;;;;;0.37;0.33;;;14.80;99.90;;;;;;4989346;28;20221;-83
2021/05/27 13:00:27;;;;;;;0.67;0.30;;;15.00;99.90;;;;;;4968612;28;20185;-82
2021/05/27 13:03:19;;;;;;;0.30;0.30;;;15.30;99.90;;;;;;4973403;28;20189;-83
2021/05/27 13:05:45;;;;;;;0.20;0.20;;;15.40;99.90;;;;;;4973527;28;20198;-82
2021/05/27 13:08:10;;;;;;;0.10;0.10;;;15.40;99.90;;;;;;4973180;28;20583;-82
2021/05/27 13:10:39;;;;;;;0.20;0.20;;;15.50;99.90;;;;;;4987501;28;20682;-83
2021/05/27 13:13:06;;;;;;;0.10;0.10;;;15.40;99.90;;;;;;4973925;28;20192;-83
2021/05/27 13:15:42;;;;;;;0.67;0.50;;;15.30;99.90;;;;;;4971164;28;20185;-83
2021/05/27 13:18:10;;;;;;;0.20;0.20;;;15.20;99.90;;;;;;4974131;28;20224;-83